Klamath Falls, OR (97601)

4:57 PM PST on December 26, 2014 (GMT -0800)
Klamath Falls City Schools | Change Station
CLOSE
Current Station
Personal Weather Station
Location: Klamath Falls, OR
Elevation: 4104 ft
Nearby Weather Stations

Elev 4104 ft 42.22 °N, 121.75 °W | Updated 9 seconds ago

Clear
Clear
35.0 °F
Feels Like 35 °F
N
0.0
Wind Variable Wind from SE
Gusts 8.0 mph

Today
High -- | Low -- °F
--% Chance of Precip.
Yesterday
High -- | Low -- °F
Precip. -- in
7:34 AM 4:41 PM
Waxing Crescent, 31% visible
Pressure 30.35 in
Visibility 10.0 miles
Clouds Clear
Windchill 35 °F
Dew Point 26 °F
Humidity 69%
Rainfall 0.00 in
Snow Depth Not available.
UV 0 out of 12
Pollen 2.00 out of 12
Air Quality Not available.
Flu Activity Not available.
METAR KSIY 262353Z AUTO 00000KT 10SM CLR 06/M03 A3027 RMK AO2 SLP277 T00611028 10072 21006 56005

More Conditions Fewer Conditions

Pressure 30.35 in
Visibility 10.0 miles
Clouds Clear
Windchill 35 °F
Dew Point 26 °F
Humidity 69%
Rainfall 0.00 in
Snow Depth Not available.
UV 0 out of 12
Pollen 2.00 out of 12
Air Quality Not available.
Flu Activity Not available.
METAR KSIY 262353Z AUTO 00000KT 10SM CLR 06/M03 A3027 RMK AO2 SLP277 T00611028 10072 21006 56005

More Conditions Fewer Conditions

10-Day Weather Forecast

Almanac

Astronomy

Dec. 26, 2014 Rise Set
Actual Time
Civil Twilight
Nautical Twilight
Astronomical Twilight
Moon
Length of Visible Light
Length of Day
Tomorrow will be .
, % of the Moon is Illuminated

Today's Extremes

State Highs State Lows

Community

WunderPhotos

Upload Photos

1,780,799 photos uploaded!

WunderBlogs® & News

Nearby

Air Quality

  Air Quality AQ Index Pollutant
Not available.

Snow Depth

Station Depth Elevation

Earthquake Activity

City Distance Mag. Time & Date
Minimum magnitude displayed is 2.5.

Coastal Water Temperatures

Place Temperature

Nearby Weather Stations